createdAt,value
2023-05-06T00:00:46.300Z,101235.91
2023-05-06T00:02:47.914Z,101237.00
2023-05-06T00:04:49.478Z,101233.16
2023-05-06T00:06:51.381Z,101238.44
2023-05-06T00:08:52.914Z,101236.50
2023-05-06T00:10:54.360Z,101236.28
2023-05-06T00:12:55.928Z,101236.06
2023-05-06T00:14:57.440Z,101231.13
2023-05-06T00:16:58.941Z,101226.44
2023-05-06T00:19:00.584Z,101230.31
2023-05-06T00:21:02.000Z,101237.13
2023-05-06T00:23:03.672Z,101231.63
2023-05-06T00:25:05.697Z,101229.69
2023-05-06T00:27:07.155Z,101232.69
2023-05-06T00:29:08.662Z,101231.38
2023-05-06T00:31:10.247Z,101229.44
2023-05-06T00:33:14.642Z,101229.22
2023-05-06T00:35:16.225Z,101226.44
2023-05-06T00:37:17.821Z,101229.84
2023-05-06T00:39:19.314Z,101225.13
2023-05-06T00:41:21.299Z,101221.56
2023-05-06T00:43:22.694Z,101214.34
2023-05-06T00:45:25.126Z,101217.34
2023-05-06T00:47:26.662Z,101214.00
2023-05-06T00:49:29.163Z,101218.41
2023-05-06T00:51:31.251Z,101210.75
2023-05-06T00:53:33.221Z,101210.50
2023-05-06T00:55:34.688Z,101210.28
2023-05-06T00:57:36.436Z,101208.34
2023-05-06T00:59:37.872Z,101204.75
2023-05-06T01:01:40.447Z,101207.75
2023-05-06T01:03:42.162Z,101219.03
2023-05-06T01:06:04.196Z,101215.16
2023-05-06T01:08:11.597Z,101209.66
2023-05-06T01:10:20.348Z,101210.75
2023-05-06T01:12:45.089Z,101204.38
2023-05-06T01:15:09.557Z,101210.50
2023-05-06T01:17:12.376Z,101203.66
2023-05-06T01:19:17.929Z,101205.94
2023-05-06T01:21:20.224Z,101205.34
2023-05-06T01:23:21.741Z,101212.78
2023-05-06T01:25:23.507Z,101207.50
2023-05-06T01:27:25.056Z,101205.81
2023-05-06T01:29:26.543Z,101203.06
2023-05-06T01:31:35.443Z,101203.28
2023-05-06T01:33:36.940Z,101198.59
2023-05-06T01:35:41.941Z,101201.13
2023-05-06T01:37:48.148Z,101197.06
2023-05-06T01:39:50.083Z,101203.16
2023-05-06T01:41:52.421Z,101202.09
2023-05-06T01:43:54.741Z,101196.00
2023-05-06T01:45:57.376Z,101193.47
2023-05-06T01:47:59.273Z,101197.06
2023-05-06T01:50:01.567Z,101190.94
2023-05-06T01:52:03.156Z,101192.00
2023-05-06T01:54:04.689Z,101192.25
2023-05-06T01:56:06.317Z,101190.94
2023-05-06T01:58:07.714Z,101186.25
2023-05-06T02:00:09.979Z,101188.53
2023-05-06T02:02:11.527Z,101183.59
2023-05-06T02:04:12.914Z,101178.94
2023-05-06T02:06:14.433Z,101184.47
2023-05-06T02:08:16.430Z,101181.94
2023-05-06T02:10:19.057Z,101179.44
2023-05-06T02:12:20.496Z,101184.94
2023-05-06T02:14:21.906Z,101187.09
2023-05-06T02:16:23.416Z,101190.72
2023-05-06T02:18:25.410Z,101189.00
2023-05-06T02:20:26.835Z,101193.22
2023-05-06T02:22:28.213Z,101196.34
2023-05-06T02:24:29.697Z,101191.41
2023-05-06T02:26:31.100Z,101193.94
2023-05-06T02:28:32.587Z,101191.66
2023-05-06T02:30:34.680Z,101191.66
2023-05-06T02:32:36.488Z,101187.22
2023-05-06T02:34:37.904Z,101189.38
2023-05-06T02:36:39.343Z,101185.78
2023-05-06T02:38:40.940Z,101183.00
2023-05-06T02:40:42.421Z,101183.38
2023-05-06T02:42:44.190Z,101187.00
2023-05-06T02:44:45.966Z,101188.41
2023-05-06T02:46:47.388Z,101190.34
2023-05-06T02:48:48.885Z,101193.94
2023-05-06T02:50:51.476Z,101194.78
2023-05-06T02:52:52.947Z,101188.66
2023-05-06T02:54:54.507Z,101192.50
2023-05-06T02:56:56.033Z,101178.94
2023-05-06T02:58:57.579Z,101181.94
2023-05-06T03:00:59.066Z,101183.59
2023-05-06T03:03:00.632Z,101171.50
2023-05-06T03:05:04.441Z,101172.69
2023-05-06T03:07:05.989Z,101172.69
2023-05-06T03:09:08.641Z,101171.59
2023-05-06T03:11:10.190Z,101171.59
2023-05-06T03:13:11.645Z,101172.69
2023-05-06T03:15:13.549Z,101171.00
2023-05-06T03:17:15.235Z,101177.59
2023-05-06T03:19:16.752Z,101181.72
2023-05-06T03:21:18.383Z,101168.16
2023-05-06T03:23:19.851Z,101172.56
2023-05-06T03:25:21.434Z,101172.09
2023-05-06T03:27:22.907Z,101171.00
2023-05-06T03:29:24.638Z,101162.25
2023-05-06T03:31:26.187Z,101164.75
2023-05-06T03:33:27.642Z,101167.53
2023-05-06T03:35:29.478Z,101171.59
2023-05-06T03:37:31.073Z,101169.06
2023-05-06T03:39:32.533Z,101173.78
2023-05-06T03:41:34.036Z,101165.97
2023-05-06T03:43:36.070Z,101167.91
2023-05-06T03:45:37.935Z,101165.72
2023-05-06T03:47:39.416Z,101165.50
2023-05-06T03:49:41.178Z,101155.28
2023-05-06T03:51:42.625Z,101162.84
2023-05-06T03:53:44.016Z,101163.69
2023-05-06T03:55:45.475Z,101163.94
2023-05-06T03:57:47.066Z,101164.75
2023-05-06T03:59:48.475Z,101171.59
2023-05-06T04:01:50.087Z,101165.25
2023-05-06T04:03:52.729Z,101161.66
2023-05-06T04:05:54.210Z,101171.59
2023-05-06T04:07:55.645Z,101163.31
2023-05-06T04:09:57.053Z,101174.13
2023-05-06T04:11:58.530Z,101162.00
2023-05-06T04:13:59.989Z,101172.81
2023-05-06T04:16:01.569Z,101165.38
2023-05-06T04:18:03.511Z,101161.75
2023-05-06T04:20:06.970Z,101159.25
2023-05-06T04:22:08.513Z,101157.94
2023-05-06T04:24:10.178Z,101159.25
2023-05-06T04:26:11.571Z,101155.03
2023-05-06T04:28:13.032Z,101152.28
2023-05-06T04:30:14.687Z,101155.03
2023-05-06T04:32:18.034Z,101156.47
2023-05-06T04:34:19.940Z,101151.56
2023-05-06T04:36:21.646Z,101154.09
2023-05-06T04:38:25.643Z,101149.41
2023-05-06T04:40:27.533Z,101145.56
2023-05-06T04:42:28.977Z,101153.25
2023-05-06T04:44:30.868Z,101146.66
2023-05-06T04:46:34.000Z,101144.38
2023-05-06T04:48:36.809Z,101151.78
2023-05-06T04:50:38.220Z,101144.38
2023-05-06T04:52:40.412Z,101146.06
2023-05-06T04:54:44.175Z,101150.25
2023-05-06T04:56:46.867Z,101149.41
2023-05-06T04:58:48.383Z,101149.41
2023-05-06T05:00:49.856Z,101148.34
2023-05-06T05:02:51.553Z,101148.34
2023-05-06T05:04:53.478Z,101160.44
2023-05-06T05:06:55.058Z,101154.09
2023-05-06T05:08:57.094Z,101156.25
2023-05-06T05:10:58.551Z,101156.47
2023-05-06T05:13:00.072Z,101162.25
2023-05-06T05:15:01.582Z,101163.22
2023-05-06T05:17:03.076Z,101158.50
2023-05-06T05:19:05.302Z,101168.50
2023-05-06T05:21:08.353Z,101167.19
2023-05-06T05:23:09.877Z,101169.94
2023-05-06T05:25:11.860Z,101173.78
2023-05-06T05:27:13.631Z,101167.66
2023-05-06T05:29:15.090Z,101175.09
2023-05-06T05:31:16.727Z,101174.25
2023-05-06T05:33:18.300Z,101182.78
2023-05-06T05:35:19.850Z,101184.72
2023-05-06T05:37:21.370Z,101179.78
2023-05-06T05:39:22.956Z,101179.53
2023-05-06T05:41:26.472Z,101189.28
2023-05-06T05:43:27.933Z,101183.50
2023-05-06T05:45:29.348Z,101185.41
2023-05-06T05:47:31.038Z,101180.97
2023-05-06T05:49:32.560Z,101184.00
2023-05-06T05:51:34.115Z,101190.56
2023-05-06T05:53:35.603Z,101186.13
2023-05-06T05:55:37.048Z,101179.53
2023-05-06T05:57:38.527Z,101180.97
2023-05-06T05:59:40.068Z,101182.88
2023-05-06T06:01:41.628Z,101186.50
2023-05-06T06:03:43.950Z,101187.09
2023-05-06T06:05:45.681Z,101192.38
2023-05-06T06:07:47.228Z,101198.72
2023-05-06T06:09:48.931Z,101195.13
2023-05-06T06:11:50.565Z,101192.38
2023-05-06T06:13:52.106Z,101193.69
2023-05-06T06:15:53.598Z,101204.72
2023-05-06T06:17:55.518Z,101185.41
2023-05-06T06:19:58.636Z,101201.16
2023-05-06T06:22:00.154Z,101206.44
2023-05-06T06:24:01.590Z,101210.25
2023-05-06T06:26:04.517Z,101212.78
2023-05-06T06:28:06.104Z,101204.50
2023-05-06T06:30:07.864Z,101210.00
2023-05-06T06:32:09.515Z,101205.59
2023-05-06T06:34:12.674Z,101205.84
2023-05-06T06:36:14.324Z,101206.31
2023-05-06T06:38:15.895Z,101206.31
2023-05-06T06:40:17.454Z,101209.44
2023-05-06T06:42:18.842Z,101208.13
2023-05-06T06:44:20.473Z,101205.69
2023-05-06T06:46:22.000Z,101200.53
2023-05-06T06:48:23.488Z,101207.72
2023-05-06T06:50:25.052Z,101195.38
2023-05-06T06:52:26.576Z,101197.03
2023-05-06T06:54:28.340Z,101196.81
2023-05-06T06:56:29.866Z,101200.66
2023-05-06T06:58:33.199Z,101197.91
2023-05-06T07:00:34.754Z,101198.72
2023-05-06T07:02:36.228Z,101197.03
2023-05-06T07:04:37.822Z,101205.94
2023-05-06T07:06:39.402Z,101208.69
2023-05-06T07:08:40.936Z,101204.00
2023-05-06T07:10:42.553Z,101210.38
2023-05-06T07:12:44.086Z,101210.63
2023-05-06T07:14:45.645Z,101207.63
2023-05-06T07:16:49.330Z,101217.81
2023-05-06T07:18:53.742Z,101212.53
2023-05-06T07:20:55.380Z,101211.09
2023-05-06T07:22:56.892Z,101213.00
2023-05-06T07:24:58.410Z,101213.00
2023-05-06T07:27:01.132Z,101211.72
2023-05-06T07:29:02.657Z,101215.91
2023-05-06T07:31:04.221Z,101215.69
2023-05-06T07:33:05.917Z,101206.56
2023-05-06T07:35:08.231Z,101205.47
2023-05-06T07:37:09.990Z,101209.31
2023-05-06T07:39:12.280Z,101212.94
2023-05-06T07:41:13.713Z,101213.78
2023-05-06T07:43:15.400Z,101218.47
2023-05-06T07:45:16.852Z,101212.94
2023-05-06T07:47:28.745Z,101211.84
2023-05-06T07:49:33.157Z,101209.94
2023-05-06T07:51:35.103Z,101217.13
2023-05-06T07:53:38.090Z,101213.88
2023-05-06T07:55:39.674Z,101210.53
2023-05-06T07:57:41.181Z,101217.75
2023-05-06T07:59:52.173Z,101221.56
2023-05-06T08:01:53.793Z,101222.88
2023-05-06T08:03:55.277Z,101225.06
2023-05-06T08:05:56.853Z,101234.38
2023-05-06T08:07:58.841Z,101226.34
2023-05-06T08:10:00.427Z,101225.75
2023-05-06T08:12:02.181Z,101228.75
2023-05-06T08:14:03.594Z,101229.00
2023-05-06T08:16:06.674Z,101227.56
2023-05-06T08:18:20.716Z,101228.63
2023-05-06T08:20:23.630Z,101229.72
2023-05-06T08:22:25.121Z,101225.28
2023-05-06T08:24:26.905Z,101225.75
2023-05-06T08:26:28.588Z,101230.44
2023-05-06T08:28:30.418Z,101226.81
2023-05-06T08:30:31.892Z,101226.81
2023-05-06T08:32:33.448Z,101220.81
2023-05-06T08:34:35.113Z,101219.50
2023-05-06T08:36:36.749Z,101222.84
2023-05-06T08:38:38.171Z,101216.25
2023-05-06T08:40:42.159Z,101218.53
2023-05-06T08:42:45.508Z,101228.50
2023-05-06T08:44:47.378Z,101224.88
2023-05-06T08:46:48.991Z,101219.38
2023-05-06T08:48:50.508Z,101217.47
2023-05-06T08:50:54.709Z,101217.22
2023-05-06T08:52:56.146Z,101210.38
2023-05-06T08:55:01.438Z,101214.59
2023-05-06T08:57:04.524Z,101214.34
2023-05-06T08:59:09.065Z,101216.63
2023-05-06T09:01:10.809Z,101224.91
2023-05-06T09:03:12.552Z,101222.78
2023-05-06T09:05:14.148Z,101218.91
2023-05-06T09:07:15.717Z,101218.09
2023-05-06T09:09:17.221Z,101215.06
2023-05-06T09:11:19.417Z,101212.06
2023-05-06T09:13:21.023Z,101210.75
2023-05-06T09:15:28.531Z,101219.88
2023-05-06T09:17:31.788Z,101216.03
2023-05-06T09:19:38.282Z,101218.56
2023-05-06T09:21:41.124Z,101219.88
2023-05-06T09:23:42.634Z,101214.00
2023-05-06T09:25:45.880Z,101222.41
2023-05-06T09:27:47.618Z,101216.16
2023-05-06T09:30:05.745Z,101220.97
2023-05-06T09:32:08.026Z,101219.50
2023-05-06T09:34:09.578Z,101217.00
2023-05-06T09:36:13.382Z,101207.50
2023-05-06T09:38:15.356Z,101221.19
2023-05-06T09:40:16.889Z,101210.25
2023-05-06T09:42:18.315Z,101215.91
2023-05-06T09:44:22.127Z,101209.78
2023-05-06T09:46:24.182Z,101206.66
2023-05-06T09:48:28.468Z,101207.13
2023-05-06T09:50:30.048Z,101205.72
2023-05-06T09:52:31.649Z,101210.00
2023-05-06T09:54:33.304Z,101209.38
2023-05-06T09:56:35.339Z,101201.59
2023-05-06T09:58:38.276Z,101195.47
2023-05-06T10:00:39.918Z,101192.97
2023-05-06T10:02:41.982Z,101199.50
2023-05-06T10:04:45.920Z,101197.22
2023-05-06T10:06:49.216Z,101189.44
2023-05-06T10:08:51.098Z,101204.56
2023-05-06T10:10:53.087Z,101191.44
2023-05-06T10:12:54.799Z,101191.44
2023-05-06T10:14:56.315Z,101186.41
2023-05-06T10:16:58.285Z,101188.56
2023-05-06T10:19:00.457Z,101185.22
2023-05-06T10:21:03.971Z,101183.28
2023-05-06T10:23:05.517Z,101181.00
2023-05-06T10:25:25.708Z,101184.00
2023-05-06T10:27:28.748Z,101184.00
2023-05-06T10:29:31.192Z,101180.03
2023-05-06T10:31:33.833Z,101182.19
2023-05-06T10:33:35.275Z,101182.44
2023-05-06T10:36:06.477Z,101184.56
2023-05-06T10:38:28.150Z,101176.91
2023-05-06T10:40:29.749Z,101176.91
2023-05-06T10:42:35.408Z,101177.97
2023-05-06T10:44:55.698Z,101172.94
2023-05-06T10:46:58.942Z,101168.50
2023-05-06T10:49:04.374Z,101179.75
2023-05-06T10:51:17.620Z,101172.19
2023-05-06T10:53:39.013Z,101165.25
2023-05-06T10:55:40.509Z,101167.78
2023-05-06T10:57:42.017Z,101165.00
2023-05-06T10:59:46.947Z,101159.50
2023-05-06T11:01:55.064Z,101162.25
2023-05-06T11:03:56.862Z,101162.03
2023-05-06T11:05:58.652Z,101163.09
2023-05-06T11:08:10.559Z,101159.75
2023-05-06T11:10:12.229Z,101156.13
2023-05-06T11:12:13.715Z,101157.81
2023-05-06T11:14:16.862Z,101155.53
2023-05-06T11:16:38.848Z,101156.81
2023-05-06T11:18:41.840Z,101146.66
2023-05-06T11:20:43.539Z,101145.56
2023-05-06T11:22:45.048Z,101144.72
2023-05-06T11:24:46.743Z,101137.28
2023-05-06T11:26:48.213Z,101142.81
2023-05-06T11:28:51.172Z,101135.63
2023-05-06T11:30:54.388Z,101124.59
2023-05-06T11:32:57.366Z,101130.13
2023-05-06T11:34:58.861Z,101133.09
2023-05-06T11:37:02.510Z,101128.44
2023-05-06T11:39:08.410Z,101129.88
2023-05-06T11:41:09.897Z,101121.22
2023-05-06T11:43:11.312Z,101123.16
2023-05-06T11:45:12.844Z,101121.47
2023-05-06T11:47:14.305Z,101119.16
2023-05-06T11:49:15.874Z,101120.47
2023-05-06T11:51:23.350Z,101126.19
2023-05-06T11:53:24.990Z,101127.06
2023-05-06T11:55:26.780Z,101111.94
2023-05-06T11:57:28.338Z,101125.38
2023-05-06T11:59:33.722Z,101125.38
2023-05-06T12:01:35.399Z,101123.66
2023-05-06T12:03:37.057Z,101130.00
2023-05-06T12:05:40.881Z,101123.66
2023-05-06T12:07:44.628Z,101125.94
2023-05-06T12:09:47.444Z,101122.47
2023-05-06T12:11:49.360Z,101124.53
2023-05-06T12:13:50.966Z,101128.94
2023-05-06T12:15:53.972Z,101126.66
2023-05-06T12:17:55.820Z,101123.53
2023-05-06T12:19:58.754Z,101134.34
2023-05-06T12:22:22.543Z,101127.75
2023-05-06T12:24:30.276Z,101131.09
2023-05-06T12:26:43.132Z,101129.81
2023-05-06T12:28:44.696Z,101131.50
2023-05-06T12:30:46.359Z,101129.38
2023-05-06T12:32:58.267Z,101126.00
2023-05-06T12:35:05.425Z,101119.41
2023-05-06T12:37:10.012Z,101123.84
2023-05-06T12:39:12.255Z,101120.25
2023-05-06T12:41:13.694Z,101115.59
2023-05-06T12:43:15.213Z,101114.50
2023-05-06T12:45:16.776Z,101128.91
2023-05-06T12:47:19.398Z,101129.38
2023-05-06T12:49:20.856Z,101125.50
2023-05-06T12:51:22.810Z,101132.13
2023-05-06T12:53:31.424Z,101127.44
2023-05-06T12:55:33.507Z,101123.38
2023-05-06T12:57:35.740Z,101119.16
2023-05-06T12:59:37.348Z,101114.50
2023-05-06T13:01:39.113Z,101114.97
2023-05-06T13:03:41.368Z,101108.97
2023-05-06T13:05:42.988Z,101110.44
2023-05-06T13:07:44.538Z,101111.53
2023-05-06T13:09:46.112Z,101117.88
2023-05-06T13:11:47.578Z,101118.34
2023-05-06T13:13:49.005Z,101109.44
2023-05-06T13:15:52.614Z,101112.88
2023-05-06T13:17:54.165Z,101111.22
2023-05-06T13:19:56.960Z,101110.97
2023-05-06T13:21:58.874Z,101111.56
2023-05-06T13:24:00.377Z,101119.84
2023-05-06T13:26:05.808Z,101113.97
2023-05-06T13:28:07.784Z,101112.28
2023-05-06T13:30:09.704Z,101110.84
2023-05-06T13:32:11.475Z,101106.41
2023-05-06T13:34:13.072Z,101106.41
2023-05-06T13:36:14.573Z,101103.91
2023-05-06T13:38:16.007Z,101102.44
2023-05-06T13:40:17.576Z,101101.22
2023-05-06T13:42:19.077Z,101099.75
2023-05-06T13:44:20.986Z,101100.38
2023-05-06T13:46:23.168Z,101098.00
2023-05-06T13:48:24.953Z,101095.25
2023-05-06T13:50:26.398Z,101098.00
2023-05-06T13:52:27.935Z,101096.34
2023-05-06T13:54:29.476Z,101088.91
2023-05-06T13:56:31.359Z,101090.81
2023-05-06T13:58:33.186Z,101092.88
2023-05-06T14:00:35.141Z,101096.22
2023-05-06T14:02:37.336Z,101087.13
2023-05-06T14:04:39.127Z,101094.28
2023-05-06T14:06:40.828Z,101083.03
2023-05-06T14:08:42.612Z,101085.56
2023-05-06T14:10:44.238Z,101080.03
2023-05-06T14:12:46.309Z,101083.28
2023-05-06T14:14:47.768Z,101080.50
2023-05-06T14:16:51.891Z,101081.97
2023-05-06T14:18:53.608Z,101085.56
2023-05-06T14:20:56.509Z,101080.44
2023-05-06T14:22:58.110Z,101078.50
2023-05-06T14:24:59.565Z,101077.66
2023-05-06T14:27:01.210Z,101071.28
2023-05-06T14:29:02.835Z,101075.75
2023-05-06T14:31:04.364Z,101081.03
2023-05-06T14:33:06.447Z,101082.75
2023-05-06T14:35:08.415Z,101077.81
2023-05-06T14:37:10.139Z,101080.56
2023-05-06T14:39:12.752Z,101075.69
2023-05-06T14:41:14.467Z,101077.34
2023-05-06T14:43:16.045Z,101075.44
2023-05-06T14:45:17.623Z,101069.06
2023-05-06T14:47:19.057Z,101061.66
2023-05-06T14:49:21.215Z,101066.06
2023-05-06T14:51:22.682Z,101063.94
2023-05-06T14:53:24.148Z,101062.59
2023-05-06T14:55:25.869Z,101060.94
2023-05-06T14:57:27.281Z,101055.78
2023-05-06T14:59:28.893Z,101051.72
2023-05-06T15:01:33.588Z,101055.06
2023-05-06T15:03:36.410Z,101057.84
2023-05-06T15:05:38.245Z,101051.00
2023-05-06T15:07:39.746Z,101060.69
2023-05-06T15:09:43.846Z,101048.34
2023-05-06T15:11:45.954Z,101031.22
2023-05-06T15:13:47.556Z,101052.31
2023-05-06T15:15:49.043Z,101056.16
2023-05-06T15:17:52.374Z,101053.41
2023-05-06T15:19:54.071Z,101049.81
2023-05-06T15:21:56.001Z,101049.56
2023-05-06T15:23:57.500Z,101056.16
2023-05-06T15:25:59.087Z,101058.09
2023-05-06T15:28:00.720Z,101057.84
2023-05-06T15:30:04.377Z,101058.91
2023-05-06T15:32:09.654Z,101062.38
2023-05-06T15:34:12.042Z,101062.16
2023-05-06T15:36:13.746Z,101063.59
2023-05-06T15:38:15.445Z,101061.91
2023-05-06T15:40:17.224Z,101067.66
2023-05-06T15:42:18.945Z,101068.28
2023-05-06T15:44:21.201Z,101070.41
2023-05-06T15:46:23.248Z,101071.50
2023-05-06T15:48:24.766Z,101075.94
2023-05-06T15:52:33.279Z,101078.84
2023-05-06T15:54:37.523Z,101063.72
2023-05-06T15:56:41.633Z,101072.84
2023-05-06T15:58:43.758Z,101079.19
2023-05-06T16:00:45.267Z,101063.94
2023-05-06T16:02:46.944Z,101066.22
2023-05-06T16:04:48.911Z,101069.84
2023-05-06T16:06:50.724Z,101066.22
2023-05-06T16:08:52.137Z,101068.41
2023-05-06T16:10:53.922Z,101066.72
2023-05-06T16:12:55.511Z,101063.94
2023-05-06T16:14:56.972Z,101059.53
2023-05-06T16:16:58.918Z,101061.44
2023-05-06T16:19:00.439Z,101057.84
2023-05-06T16:21:01.928Z,101054.00
2023-05-06T16:23:03.391Z,101059.28
2023-05-06T16:25:05.086Z,101055.66
2023-05-06T16:27:06.612Z,101056.78
2023-05-06T16:29:08.171Z,101053.16
2023-05-06T16:31:09.803Z,101061.44
2023-05-06T16:33:12.137Z,101054.25
2023-05-06T16:35:13.883Z,101062.28
2023-05-06T16:37:15.594Z,101054.00
2023-05-06T16:39:17.200Z,101052.69
2023-05-06T16:41:18.645Z,101051.03
2023-05-06T16:43:20.171Z,101047.41
2023-05-06T16:45:21.679Z,101047.16
2023-05-06T16:47:24.261Z,101040.00
2023-05-06T16:49:28.139Z,101038.06
2023-05-06T16:51:29.761Z,101045.50
2023-05-06T16:53:31.219Z,101038.28
2023-05-06T16:55:32.787Z,101032.78
2023-05-06T16:57:34.416Z,101038.88
2023-05-06T16:59:36.291Z,101033.59
2023-05-06T17:01:37.831Z,101028.94
2023-05-06T17:03:40.371Z,101032.53
2023-05-06T17:05:43.348Z,101034.00
2023-05-06T17:07:45.032Z,101035.06
2023-05-06T17:09:46.647Z,101024.03
2023-05-06T17:11:48.477Z,101024.28
2023-05-06T17:13:49.908Z,101028.09
2023-05-06T17:15:51.786Z,101030.84
2023-05-06T17:17:54.021Z,101016.56
2023-05-06T17:19:57.364Z,101025.97
2023-05-06T17:21:59.009Z,101034.22
2023-05-06T17:24:00.655Z,101029.44
2023-05-06T17:28:04.577Z,101031.34
2023-05-06T17:30:06.647Z,101030.50
2023-05-06T17:32:08.585Z,101033.03
2023-05-06T17:34:10.080Z,101029.78
2023-05-06T17:36:16.067Z,101020.91
2023-05-06T17:38:17.549Z,101016.72
2023-05-06T17:40:19.245Z,101020.78
2023-05-06T17:42:20.710Z,101013.81
2023-05-06T17:44:22.392Z,101017.69
2023-05-06T17:46:23.918Z,101011.53
2023-05-06T17:48:25.523Z,101019.22
2023-05-06T17:50:27.046Z,101013.94
2023-05-06T17:52:28.628Z,101008.19
2023-05-06T17:54:34.669Z,101013.13
2023-05-06T17:56:36.484Z,101012.25
2023-05-06T17:58:37.984Z,101008.31
2023-05-06T18:00:39.561Z,101011.31
2023-05-06T18:02:41.628Z,101012.75
2023-05-06T18:04:43.972Z,101023.19
2023-05-06T18:06:46.307Z,101017.06
2023-05-06T18:08:47.829Z,101014.91
2023-05-06T18:10:50.530Z,101020.66
2023-05-06T18:12:52.298Z,101018.97
2023-05-06T18:14:55.327Z,101021.72
2023-05-06T18:16:58.536Z,101019.84
2023-05-06T18:19:02.584Z,101023.41
2023-05-06T18:21:04.156Z,101023.19
2023-05-06T18:23:06.925Z,101016.84
2023-05-06T18:25:09.341Z,101016.84
2023-05-06T18:27:12.763Z,101014.91
2023-05-06T18:29:14.596Z,101012.16
2023-05-06T18:31:16.163Z,101008.91
2023-05-06T18:33:17.804Z,101013.34
2023-05-06T18:35:19.466Z,101007.59
2023-05-06T18:37:20.990Z,101011.66
2023-05-06T18:39:23.215Z,101011.31
2023-05-06T18:41:25.148Z,101017.66
2023-05-06T18:43:26.908Z,101010.47
2023-05-06T18:45:29.477Z,101013.34
2023-05-06T18:47:32.156Z,101012.41
2023-05-06T18:49:33.821Z,101013.47
2023-05-06T18:51:37.527Z,101008.19
2023-05-06T18:53:39.326Z,101023.66
2023-05-06T18:55:40.749Z,101017.91
2023-05-06T18:57:42.220Z,101017.69
2023-05-06T18:59:43.643Z,101030.59
2023-05-06T19:01:46.020Z,101030.00
2023-05-06T19:03:47.751Z,101028.94
2023-05-06T19:05:49.341Z,101030.00
2023-05-06T19:07:51.523Z,101036.13
2023-05-06T19:09:52.954Z,101036.97
2023-05-06T19:11:55.412Z,101032.53
2023-05-06T19:13:56.917Z,101035.88
2023-05-06T19:15:58.341Z,101032.06
2023-05-06T19:18:00.257Z,101031.22
2023-05-06T19:20:01.753Z,101040.09
2023-05-06T19:22:03.235Z,101040.31
2023-05-06T19:24:05.929Z,101043.31
2023-05-06T19:26:07.735Z,101039.50
2023-05-06T19:28:09.590Z,101041.06
2023-05-06T19:30:11.117Z,101041.78
2023-05-06T19:32:12.683Z,101042.38
2023-05-06T19:34:14.431Z,101036.13
2023-05-06T19:36:16.587Z,101032.31
2023-05-06T19:38:19.581Z,101025.69
2023-05-06T19:40:22.004Z,101028.44
2023-05-06T19:42:23.517Z,101030.75
2023-05-06T19:44:24.935Z,101037.09
2023-05-06T19:46:26.416Z,101021.38
2023-05-06T19:48:28.045Z,101024.13
2023-05-06T19:50:31.233Z,101029.41
2023-05-06T19:52:34.463Z,101023.66
2023-05-06T19:54:36.164Z,101026.41
2023-05-06T19:56:37.620Z,101016.47
2023-05-06T19:58:39.562Z,101017.28
2023-05-06T20:00:41.233Z,101015.38
2023-05-06T20:02:42.738Z,101015.97
2023-05-06T20:04:44.556Z,101014.88
2023-05-06T20:06:46.250Z,101021.03
2023-05-06T20:08:47.674Z,101019.31
2023-05-06T20:10:49.171Z,101015.28
2023-05-06T20:12:50.662Z,101018.88
2023-05-06T20:14:52.596Z,101024.41
2023-05-06T20:16:54.248Z,101021.41
2023-05-06T20:18:56.279Z,101023.91
2023-05-06T20:20:57.934Z,101027.25
2023-05-06T20:23:00.739Z,101028.13
2023-05-06T20:25:09.541Z,101026.75
2023-05-06T20:27:11.365Z,101025.69
2023-05-06T20:29:12.829Z,101017.41
2023-05-06T20:31:14.315Z,101017.41
2023-05-06T20:33:15.819Z,101021.25
2023-05-06T20:35:17.746Z,101016.34
2023-05-06T20:37:20.040Z,101012.50
2023-05-06T20:39:21.963Z,101009.75
2023-05-06T20:41:23.398Z,101005.88
2023-05-06T20:43:25.164Z,101014.78
2023-05-06T20:45:27.554Z,101006.50
2023-05-06T20:47:29.057Z,101015.94
2023-05-06T20:49:30.645Z,101013.81
2023-05-06T20:51:32.136Z,101022.91
2023-05-06T20:53:33.816Z,101020.97
2023-05-06T20:55:35.463Z,101017.97
2023-05-06T20:57:41.306Z,101025.19
2023-05-06T20:59:42.928Z,101024.34
2023-05-06T21:01:44.594Z,101018.59
2023-05-06T21:03:49.083Z,101010.56
2023-05-06T21:05:50.639Z,101022.19
2023-05-06T21:07:52.103Z,101024.69
2023-05-06T21:09:53.548Z,101023.00
2023-05-06T21:11:55.616Z,101026.38
2023-05-06T21:13:57.495Z,101031.66
2023-05-06T21:15:58.906Z,101029.72
2023-05-06T21:18:00.823Z,101043.03
2023-05-06T21:20:03.689Z,101033.94
2023-05-06T21:22:09.915Z,101030.94
2023-05-06T21:24:12.100Z,101027.34
2023-05-06T21:26:13.860Z,101033.69
2023-05-06T21:28:15.336Z,101035.63
2023-05-06T21:30:17.481Z,101045.81
2023-05-06T21:32:19.126Z,101036.69
2023-05-06T21:34:20.984Z,101038.84
2023-05-06T21:36:22.635Z,101036.09
2023-05-06T21:38:24.151Z,101044.59
2023-05-06T21:40:25.844Z,101038.25
2023-05-06T21:42:27.539Z,101047.38
2023-05-06T21:44:29.002Z,101042.72
2023-05-06T21:46:30.787Z,101047.97
2023-05-06T21:48:32.469Z,101043.78
2023-05-06T21:50:35.789Z,101051.47
2023-05-06T21:52:37.529Z,101045.59
2023-05-06T21:54:38.905Z,101050.75
2023-05-06T21:56:40.548Z,101044.91
2023-05-06T21:58:41.992Z,101043.47
2023-05-06T22:00:43.453Z,101046.09
2023-05-06T22:02:46.312Z,101042.75
2023-05-06T22:04:47.946Z,101048.25
2023-05-06T22:06:49.438Z,101056.53
2023-05-06T22:08:51.388Z,101049.34
2023-05-06T22:10:53.111Z,101054.03
2023-05-06T22:12:54.548Z,101054.25
2023-05-06T22:14:55.998Z,101056.44
2023-05-06T22:16:57.464Z,101050.50
2023-05-06T22:18:59.376Z,101048.00
2023-05-06T22:21:00.904Z,101049.09
2023-05-06T22:23:02.542Z,101047.06
2023-05-06T22:25:04.075Z,101051.13
2023-05-06T22:27:05.585Z,101052.44
2023-05-06T22:29:07.253Z,101058.69
2023-05-06T22:31:08.909Z,101061.44
2023-05-06T22:33:10.383Z,101073.19
2023-05-06T22:35:12.260Z,101077.88
2023-05-06T22:37:14.061Z,101082.19
2023-05-06T22:39:15.630Z,101082.44
2023-05-06T22:41:18.129Z,101090.94
2023-05-06T22:43:19.652Z,101107.72
2023-05-06T22:45:21.102Z,101141.28
2023-05-06T22:47:22.675Z,101157.47
2023-05-06T22:49:26.212Z,101158.78
2023-05-06T22:51:28.045Z,101159.25
2023-05-06T22:53:29.715Z,101176.88
2023-05-06T22:55:31.329Z,101165.50
2023-05-06T22:57:32.814Z,101150.47
2023-05-06T22:59:34.237Z,101149.25
2023-05-06T23:01:35.715Z,101134.25
2023-05-06T23:03:37.291Z,101125.84
2023-05-06T23:05:38.855Z,101109.78
2023-05-06T23:07:40.476Z,101109.16
2023-05-06T23:09:42.093Z,101099.44
2023-05-06T23:11:43.571Z,101099.69
2023-05-06T23:13:45.620Z,101094.63
2023-05-06T23:15:47.130Z,101092.13
2023-05-06T23:17:48.618Z,101083.47
2023-05-06T23:19:50.084Z,101065.81
2023-05-06T23:21:52.249Z,101085.03